Time;durP1;ratioP1;P1;durP2;ratioP2;P2;SDS_P1;SDS_P2;PMS_P1;PMS_P2;Temp;Humidity;BMP_temperature;BMP_pressure;BME280_temperature;BME280_humidity;BME280_pressure;Samples;Min_cycle;Max_cycle;Signal;HPM_P1;HPM_P2
2022/07/28 00:01:59;;;;;;;;;;;;;;;27.06;64.75;101017.78;4989516;28;20459;-89
2022/07/28 00:04:24;;;;;;;;;;;;;;;27.06;64.62;101015.97;4952971;28;20008;-88
2022/07/28 00:06:49;;;;;;;;;;;;;;;27.06;64.84;101013.28;4971389;28;19918;-87
2022/07/28 00:09:15;;;;;;;;;;;;;;;27.06;64.78;101015.09;4952967;28;20319;-88
2022/07/28 00:11:40;;;;;;;;;;;;;;;27.06;64.68;101026.69;4941348;28;19918;-89
2022/07/28 00:14:06;;;;;;;;;;;;;;;27.08;64.71;101024.91;4938797;28;20327;-89
2022/07/28 00:16:31;;;;;;;;;;;;;;;27.06;64.65;101025.81;4941885;28;20285;-89
2022/07/28 00:18:57;;;;;;;;;;;;;;;27.05;64.83;101027.63;4953129;28;19921;-88
2022/07/28 00:21:23;;;;;;;;;;;;;;;27.06;64.46;101021.34;4941641;28;19917;-89
2022/07/28 00:23:49;;;;;;;;;;;;;;;27.06;64.43;101025.81;4941419;28;19922;-89
2022/07/28 00:26:14;;;;;;;;;;;;;;;27.06;64.32;101017.78;4952814;28;20013;-88
2022/07/28 00:28:39;;;;;;;;;;;;;;;27.09;64.40;101015.06;4941167;28;19943;-88
2022/07/28 00:31:05;;;;;;;;;;;;;;;27.07;64.26;101017.75;4945827;28;19925;-88
2022/07/28 00:33:30;;;;;;;;;;;;;;;27.06;64.79;101017.78;4973411;28;20332;-89
2022/07/28 00:35:56;;;;;;;;;;;;;;;27.05;64.67;101014.22;4940840;28;20008;-89
2022/07/28 00:38:21;;;;;;;;;;;;;;;27.04;64.58;101009.75;4966450;28;19915;-89
2022/07/28 00:43:32;;;;;;;;;;;;;;;27.04;64.34;101024.94;4963672;28;20438;-89
2022/07/28 00:46:00;;;;;;;;;;;;;;;27.04;64.42;101022.25;4953780;28;20461;-88
2022/07/28 00:48:26;;;;;;;;;;;;;;;27.04;64.68;101023.16;4957402;28;19981;-88
2022/07/28 00:50:52;;;;;;;;;;;;;;;27.03;64.48;101024.06;4971738;28;19922;-88
2022/07/28 00:53:17;;;;;;;;;;;;;;;27.03;64.49;101024.06;4956627;28;19918;-89
2022/07/28 00:55:42;;;;;;;;;;;;;;;27.04;64.74;101025.81;4974497;28;20013;-89
2022/07/28 00:58:08;;;;;;;;;;;;;;;27.05;64.64;101026.72;4963444;28;19969;-88
2022/07/28 01:00:33;;;;;;;;;;;;;;;27.04;64.42;101023.16;4957621;28;19972;-88
2022/07/28 01:02:59;;;;;;;;;;;;;;;27.05;64.62;101027.63;4940332;28;19918;-88
2022/07/28 01:05:25;;;;;;;;;;;;;;;27.06;64.43;101025.81;4941324;28;19929;-89
2022/07/28 01:07:53;;;;;;;;;;;;;;;27.07;64.38;101028.47;4943354;28;20008;-89
2022/07/28 01:10:21;;;;;;;;;;;;;;;27.07;64.04;101030.25;4984336;28;19922;-89
2022/07/28 01:13:03;;;;;;;;;;;;;;;27.09;64.06;101023.09;4960835;28;19918;-89
2022/07/28 01:15:30;;;;;;;;;;;;;;;27.07;64.10;101019.53;4976062;28;19926;-88
2022/07/28 01:18:05;;;;;;;;;;;;;;;27.07;64.16;101028.47;4976917;28;20351;-88
2022/07/28 01:20:38;;;;;;;;;;;;;;;27.06;64.48;101028.50;4993806;28;20032;-89
2022/07/28 01:23:27;;;;;;;;;;;;;;;27.09;64.10;101025.78;4968955;28;19921;-89
2022/07/28 01:26:12;;;;;;;;;;;;;;;27.04;64.24;101020.47;4960436;28;19972;-89
2022/07/28 01:28:40;;;;;;;;;;;;;;;27.04;64.40;101008.88;4988825;28;20410;-89
2022/07/28 01:31:06;;;;;;;;;;;;;;;27.02;64.62;101016.91;4968079;28;19998;-88
2022/07/28 01:33:43;;;;;;;;;;;;;;;27.04;64.29;101007.06;4960806;28;19996;-88
2022/07/28 01:36:10;;;;;;;;;;;;;;;27.04;64.50;101008.88;4976389;28;19918;-88
2022/07/28 01:38:36;;;;;;;;;;;;;;;27.05;64.54;101006.19;4971105;28;19977;-89
2022/07/28 01:41:03;;;;;;;;;;;;;;;27.06;64.37;100994.53;4952249;28;20400;-88
2022/07/28 01:43:30;;;;;;;;;;;;;;;27.06;64.35;100999.91;4956069;28;19918;-89
2022/07/28 01:45:56;;;;;;;;;;;;;;;27.07;64.32;100998.97;4965603;28;19924;-88
2022/07/28 01:48:22;;;;;;;;;;;;;;;27.05;64.49;100994.53;4958413;28;20013;-88
2022/07/28 01:50:49;;;;;;;;;;;;;;;27.04;64.28;101000.81;4959701;28;19932;-88
2022/07/28 01:53:16;;;;;;;;;;;;;;;27.04;64.31;101011.53;4969549;28;19918;-89
2022/07/28 01:55:42;;;;;;;;;;;;;;;27.05;64.14;101016.91;4962729;28;19925;-88
2022/07/28 01:58:07;;;;;;;;;;;;;;;27.04;64.35;101020.47;4974541;28;19918;-87
2022/07/28 02:00:33;;;;;;;;;;;;;;;27.05;64.36;101014.22;4974277;28;19928;-89
2022/07/28 02:02:59;;;;;;;;;;;;;;;27.02;63.99;101020.47;4953405;28;19914;-87
2022/07/28 02:05:26;;;;;;;;;;;;;;;27.01;64.21;101021.38;4990304;28;19918;-89
2022/07/28 02:07:52;;;;;;;;;;;;;;;27.01;64.18;101036.59;4957868;28;19922;-88
2022/07/28 02:10:17;;;;;;;;;;;;;;;27.00;64.48;101037.47;4973318;28;19929;-88
2022/07/28 02:12:43;;;;;;;;;;;;;;;27.03;64.23;101042.81;4976523;28;20399;-88
2022/07/28 02:15:10;;;;;;;;;;;;;;;27.02;64.52;101039.25;4965680;28;20384;-90
2022/07/28 02:17:35;;;;;;;;;;;;;;;27.04;64.41;101043.72;4959362;28;19913;-88
2022/07/28 02:20:01;;;;;;;;;;;;;;;27.03;64.56;101050.88;4975718;28;20429;-88
2022/07/28 02:22:26;;;;;;;;;;;;;;;26.99;64.51;101044.63;4990497;28;19918;-86
2022/07/28 02:24:55;;;;;;;;;;;;;;;27.03;64.14;101053.56;4959161;28;19946;-88
2022/07/28 02:27:27;;;;;;;;;;;;;;;27.02;64.15;101058.00;4975574;28;19917;-89
2022/07/28 02:29:56;;;;;;;;;;;;;;;27.02;64.23;101062.47;4964594;28;20366;-88
2022/07/28 02:32:35;;;;;;;;;;;;;;;26.98;64.62;101069.66;4956079;28;19997;-89
2022/07/28 02:35:06;;;;;;;;;;;;;;;26.98;64.28;101074.13;4974666;28;20057;-90
2022/07/28 02:37:38;;;;;;;;;;;;;;;26.99;64.41;101075.94;4958416;28;19918;-89
2022/07/28 02:40:04;;;;;;;;;;;;;;;26.96;64.30;101084.84;4970730;28;19925;-89
2022/07/28 02:42:31;;;;;;;;;;;;;;;26.97;64.47;101075.03;4957666;28;19922;-89
2022/07/28 02:44:58;;;;;;;;;;;;;;;26.96;64.69;101083.97;4957420;28;20012;-89
2022/07/28 02:47:24;;;;;;;;;;;;;;;26.94;64.32;101083.97;4950406;28;20411;-89
2022/07/28 02:49:49;;;;;;;;;;;;;;;26.96;64.32;101090.22;4960272;28;19922;-89
2022/07/28 02:52:15;;;;;;;;;;;;;;;26.97;64.23;101091.13;4945465;28;19968;-88
2022/07/28 02:54:40;;;;;;;;;;;;;;;26.95;64.29;101087.56;4971228;28;20501;-90
2022/07/28 02:57:06;;;;;;;;;;;;;;;26.96;64.22;101092.91;4974052;28;20374;-90
2022/07/28 02:59:31;;;;;;;;;;;;;;;26.95;64.40;101092.94;4958164;28;20016;-90
2022/07/28 03:01:57;;;;;;;;;;;;;;;26.97;63.99;101088.44;4952517;28;19929;-89
2022/07/28 03:05:06;;;;;;;;;;;;;;;26.93;64.09;101087.56;4973855;28;19933;-89
2022/07/28 03:07:11;;;;;;;;;;;;;;;26.92;64.57;101092.94;4962230;28;19927;-90
2022/07/28 03:09:39;;;;;;;;;;;;;;;26.94;64.20;101092.03;4974875;28;20339;-90
2022/07/28 03:12:04;;;;;;;;;;;;;;;26.95;63.84;101100.97;4955047;28;19981;-89
2022/07/28 03:14:30;;;;;;;;;;;;;;;26.96;64.22;101100.06;4941708;28;20470;-89
2022/07/28 03:16:55;;;;;;;;;;;;;;;26.94;64.06;101104.53;4961897;28;19934;-89
2022/07/28 03:19:23;;;;;;;;;;;;;;;26.90;64.18;101097.41;4979251;28;19941;-90
2022/07/28 03:21:51;;;;;;;;;;;;;;;26.88;64.22;101105.50;4945286;28;19993;-88
2022/07/28 03:24:17;;;;;;;;;;;;;;;26.87;64.27;101106.38;4946371;28;20422;-90
2022/07/28 03:26:46;;;;;;;;;;;;;;;26.89;64.47;101106.38;4961099;28;19918;-90
2022/07/28 03:29:12;;;;;;;;;;;;;;;26.89;64.35;101112.63;4955910;28;19937;-91
2022/07/28 03:31:38;;;;;;;;;;;;;;;26.88;64.22;101107.25;4953167;28;19926;-89
2022/07/28 03:34:04;;;;;;;;;;;;;;;26.86;64.32;101104.63;4960138;28;19914;-89
2022/07/28 03:36:35;;;;;;;;;;;;;;;26.88;64.23;101110.84;4961421;28;19932;-87
2022/07/28 03:39:02;;;;;;;;;;;;;;;26.90;64.08;101121.53;4955788;28;20000;-88
2022/07/28 03:41:28;;;;;;;;;;;;;;;26.90;64.17;101111.75;4953913;28;19929;-88
2022/07/28 03:43:53;;;;;;;;;;;;;;;26.87;64.43;101108.19;4955603;28;19918;-88
2022/07/28 03:46:20;;;;;;;;;;;;;;;26.87;63.98;101117.09;4957064;28;20380;-88
2022/07/28 03:48:45;;;;;;;;;;;;;;;26.87;63.98;101121.59;4974240;28;19964;-87
2022/07/28 03:51:11;;;;;;;;;;;;;;;26.88;64.29;101115.31;4978686;28;19957;-87
2022/07/28 03:53:37;;;;;;;;;;;;;;;26.87;64.22;101124.25;4991323;28;20379;-86
2022/07/28 03:56:02;;;;;;;;;;;;;;;26.86;64.26;101127.81;4970668;28;19921;-88
2022/07/28 03:58:27;;;;;;;;;;;;;;;26.83;64.38;101126.06;4994729;28;20438;-88
2022/07/28 04:00:53;;;;;;;;;;;;;;;26.81;64.24;101123.38;4977017;28;20004;-86
2022/07/28 04:03:19;;;;;;;;;;;;;;;26.83;64.41;101127.88;4977008;28;19918;-87
2022/07/28 04:05:44;;;;;;;;;;;;;;;26.80;64.23;101128.78;4977361;28;19976;-88
2022/07/28 04:08:11;;;;;;;;;;;;;;;26.80;64.32;101123.44;4976359;28;20037;-88
2022/07/28 04:10:36;;;;;;;;;;;;;;;26.79;64.42;101130.53;4977128;28;19946;-88
2022/07/28 04:13:02;;;;;;;;;;;;;;;26.79;64.39;101125.19;4978446;28;19914;-88
2022/07/28 04:15:28;;;;;;;;;;;;;;;26.80;64.34;101129.66;4978018;28;19917;-88
2022/07/28 04:17:54;;;;;;;;;;;;;;;26.80;64.24;101135.03;4960541;28;19913;-86
2022/07/28 04:20:20;;;;;;;;;;;;;;;26.79;64.28;101135.91;4961260;28;20452;-88
2022/07/28 04:22:46;;;;;;;;;;;;;;;26.79;64.16;101135.91;4963489;28;19957;-88
2022/07/28 04:25:12;;;;;;;;;;;;;;;26.78;64.50;101136.81;4972965;28;19956;-87
2022/07/28 04:27:37;;;;;;;;;;;;;;;26.79;64.60;101130.53;4975786;28;20405;-86
2022/07/28 04:30:03;;;;;;;;;;;;;;;26.80;64.66;101134.16;4960239;28;19933;-88
2022/07/28 04:32:29;;;;;;;;;;;;;;;26.80;64.66;101142.19;4961495;28;19963;-88
2022/07/28 04:34:55;;;;;;;;;;;;;;;26.81;64.49;101138.59;4977186;28;20000;-88
2022/07/28 04:37:20;;;;;;;;;;;;;;;26.80;64.48;101147.53;4977004;28;20306;-88
2022/07/28 04:39:46;;;;;;;;;;;;;;;26.79;64.69;101141.28;4960272;28;20183;-88
2022/07/28 04:42:12;;;;;;;;;;;;;;;26.80;64.76;101143.06;4993627;28;19914;-87
2022/07/28 04:44:41;;;;;;;;;;;;;;;26.81;64.58;101151.97;4977926;28;20280;-88
2022/07/28 04:47:07;;;;;;;;;;;;;;;26.80;64.67;101148.41;4965615;28;20371;-89
2022/07/28 04:49:32;;;;;;;;;;;;;;;26.80;64.52;101145.75;4977277;28;20034;-89
2022/07/28 04:51:58;;;;;;;;;;;;;;;26.85;64.45;101151.06;4957345;28;20483;-88
2022/07/28 04:54:23;;;;;;;;;;;;;;;26.85;64.58;101150.19;4954057;28;20896;-88
2022/07/28 04:56:51;;;;;;;;;;;;;;;26.86;64.24;101154.63;4976971;28;20302;-90
2022/07/28 04:59:17;;;;;;;;;;;;;;;26.87;64.13;101159.09;4960642;28;19918;-90
2022/07/28 05:01:44;;;;;;;;;;;;;;;26.86;64.42;101159.97;4975733;28;19913;-90
2022/07/28 05:04:09;;;;;;;;;;;;;;;26.86;64.47;101159.97;4958000;28;20040;-89
2022/07/28 05:06:35;;;;;;;;;;;;;;;26.87;64.54;101165.34;4970046;28;20076;-89
2022/07/28 05:09:00;;;;;;;;;;;;;;;26.85;64.67;101168.94;4958370;28;19921;-90
2022/07/28 05:11:26;;;;;;;;;;;;;;;26.84;64.83;101173.41;4973537;28;19925;-89
2022/07/28 05:13:52;;;;;;;;;;;;;;;26.80;64.78;101174.34;4952870;28;19918;-90
2022/07/28 05:16:18;;;;;;;;;;;;;;;26.81;64.85;101179.66;4978929;28;19925;-90
2022/07/28 05:18:44;;;;;;;;;;;;;;;26.79;64.52;101178.78;4963581;28;19922;-88
2022/07/28 05:21:11;;;;;;;;;;;;;;;26.80;64.51;101166.28;4964862;28;19922;-88
2022/07/28 05:23:38;;;;;;;;;;;;;;;26.81;64.72;101179.66;4975917;28;19921;-89
2022/07/28 05:26:05;;;;;;;;;;;;;;;26.79;64.75;101183.25;4976523;28;19918;-89
2022/07/28 05:28:31;;;;;;;;;;;;;;;26.79;65.19;101178.78;4957938;28;19918;-88
2022/07/28 05:30:58;;;;;;;;;;;;;;;26.81;64.78;101176.97;4975109;28;19992;-88
2022/07/28 05:33:23;;;;;;;;;;;;;;;26.82;64.98;101177.91;4970515;28;19961;-89
2022/07/28 05:35:53;;;;;;;;;;;;;;;26.80;65.05;101188.63;4992674;28;19953;-88
2022/07/28 05:38:19;;;;;;;;;;;;;;;26.79;65.05;101184.13;4972086;28;20407;-88
2022/07/28 05:40:46;;;;;;;;;;;;;;;26.80;64.77;101179.69;4965210;28;19918;-87
2022/07/28 05:43:14;;;;;;;;;;;;;;;26.76;65.58;101185.97;4959460;28;19921;-91
2022/07/28 05:45:42;;;;;;;;;;;;;;;26.78;64.96;101186.84;4979502;28;19982;-91
2022/07/28 05:48:07;;;;;;;;;;;;;;;26.81;65.25;101185.03;4956272;28;20284;-90
2022/07/28 05:50:33;;;;;;;;;;;;;;;26.80;65.26;101188.63;4960616;28;20406;-91
2022/07/28 05:52:58;;;;;;;;;;;;;;;26.81;65.07;101190.38;4960427;28;19917;-91
2022/07/28 05:55:31;;;;;;;;;;;;;;;26.85;64.71;101196.63;4974675;28;20299;-94
2022/07/28 05:57:57;;;;;;;;;;;;;;;26.81;64.85;101194.84;4979975;28;19918;-89
2022/07/28 06:00:23;;;;;;;;;;;;;;;26.81;65.29;101193.06;4974566;28;19922;-90
2022/07/28 06:02:50;;;;;;;;;;;;;;;26.80;65.08;101196.66;4976201;28;20345;-90
2022/07/28 06:05:22;;;;;;;;;;;;;;;26.80;65.25;101207.38;4970268;28;20012;-93
2022/07/28 06:07:48;;;;;;;;;;;;;;;26.82;64.93;101207.38;4966125;28;20061;-89
2022/07/28 06:10:16;;;;;;;;;;;;;;;26.78;64.86;101203.81;4940997;28;20009;-91
2022/07/28 06:12:50;;;;;;;;;;;;;;;26.82;64.86;101207.38;4930789;28;20686;-90
2022/07/28 06:15:21;;;;;;;;;;;;;;;26.86;64.44;101205.53;4944426;28;19917;-92
2022/07/28 06:17:54;;;;;;;;;;;;;;;26.86;64.55;101203.78;4949045;28;20057;-93
2022/07/28 06:20:20;;;;;;;;;;;;;;;26.85;64.18;101204.66;4935825;28;19925;-90
2022/07/28 06:22:47;;;;;;;;;;;;;;;26.86;63.68;101205.53;4955123;28;20013;-88
2022/07/28 06:25:19;;;;;;;;;;;;;;;27.00;63.78;101206.34;4957740;28;19918;-94
2022/07/28 06:27:55;;;;;;;;;;;;;;;26.97;66.43;101209.94;4958618;28;19968;-94
2022/07/28 06:33:31;;;;;;;;;;;;;;;27.01;68.05;101214.38;4960755;28;19925;-93
2022/07/28 06:36:31;;;;;;;;;;;;;;;26.95;67.14;101214.44;4958486;28;20400;-87
2022/07/28 06:39:14;;;;;;;;;;;;;;;26.94;66.68;101214.44;4938592;28;20012;-88
2022/07/28 06:41:40;;;;;;;;;;;;;;;26.98;66.14;101211.72;4933383;28;19914;-89
2022/07/28 06:44:08;;;;;;;;;;;;;;;26.99;65.80;101218.88;4954568;28;20398;-90
2022/07/28 06:46:34;;;;;;;;;;;;;;;26.98;65.31;101227.78;4934585;28;19918;-90
2022/07/28 06:49:02;;;;;;;;;;;;;;;26.98;65.55;101226.91;4954149;28;19981;-91
2022/07/28 06:51:38;;;;;;;;;;;;;;;26.96;65.59;101226.91;4953412;28;19965;-90
2022/07/28 06:54:13;;;;;;;;;;;;;;;26.99;65.52;101229.59;4933456;28;19922;-90
2022/07/28 06:59:48;;;;;;;;;;;;;;;26.99;64.75;101228.72;4966513;28;20307;-88
2022/07/28 07:02:35;;;;;;;;;;;;;;;26.99;64.91;101229.59;4957170;28;19969;-88
2022/07/28 07:05:01;;;;;;;;;;;;;;;27.04;64.87;101226.00;4980629;28;20289;-87
2022/07/28 07:07:51;;;;;;;;;;;;;;;26.99;64.54;101226.03;4940662;28;19928;-87
2022/07/28 07:10:16;;;;;;;;;;;;;;;27.05;64.66;101230.44;4971169;28;19980;-86
2022/07/28 07:12:41;;;;;;;;;;;;;;;26.89;65.21;101229.66;4975190;28;19918;-86
2022/07/28 07:15:07;;;;;;;;;;;;;;;26.98;64.44;101235.84;4991711;28;19925;-87
2022/07/28 07:17:33;;;;;;;;;;;;;;;27.01;64.76;101238.50;4974809;28;19972;-87
2022/07/28 07:19:58;;;;;;;;;;;;;;;27.01;64.70;101235.84;4958505;28;20432;-87
2022/07/28 07:22:24;;;;;;;;;;;;;;;27.05;64.56;101233.13;4973314;28;19984;-87
2022/07/28 07:24:49;;;;;;;;;;;;;;;27.08;64.27;101238.47;4952152;28;20378;-88
2022/07/28 07:27:15;;;;;;;;;;;;;;;27.06;64.46;101243.84;4973422;28;19914;-88
2022/07/28 07:29:40;;;;;;;;;;;;;;;27.04;64.29;101251.00;4972957;28;19976;-88
2022/07/28 07:32:06;;;;;;;;;;;;;;;27.04;64.09;101248.31;4969280;28;19914;-88
2022/07/28 07:34:31;;;;;;;;;;;;;;;27.06;63.99;101253.69;4975268;28;20403;-88
2022/07/28 07:36:57;;;;;;;;;;;;;;;27.07;63.82;101245.59;4958989;28;19918;-87
2022/07/28 07:39:22;;;;;;;;;;;;;;;27.09;63.95;101253.66;4958940;28;19918;-89
2022/07/28 07:41:48;;;;;;;;;;;;;;;27.06;64.14;101257.25;4992932;28;19917;-87
2022/07/28 07:44:13;;;;;;;;;;;;;;;27.04;64.00;101261.72;4987937;28;19970;-88
2022/07/28 07:46:41;;;;;;;;;;;;;;;27.08;63.95;101255.44;4945584;28;19949;-89
2022/07/28 08:28:10;;;;;;;;;;;;;;;27.03;63.62;101286.78;4972952;28;19941;-88
2022/07/28 08:30:38;;;;;;;;;;;;;;;26.98;63.88;101294.81;4947847;28;19922;-87
2022/07/28 08:33:09;;;;;;;;;;;;;;;26.98;63.93;101289.44;4952667;28;19929;-85
2022/07/28 08:35:36;;;;;;;;;;;;;;;27.01;63.57;101285.88;4981992;28;19926;-87
2022/07/28 08:38:19;;;;;;;;;;;;;;;26.98;64.16;101291.25;4956155;28;19922;-89
2022/07/28 08:40:45;;;;;;;;;;;;;;;27.00;63.44;101292.13;4954998;28;20028;-87
2022/07/28 08:43:31;;;;;;;;;;;;;;;27.00;63.72;101289.44;4956750;28;20395;-86
2022/07/28 08:46:20;;;;;;;;;;;;;;;27.01;63.63;101291.25;4945728;29;19961;-88
2022/07/28 08:48:45;;;;;;;;;;;;;;;26.99;63.64;101293.94;4939730;29;20428;-89
2022/07/28 08:51:20;;;;;;;;;;;;;;;27.00;63.61;101290.31;4939411;29;20013;-88
2022/07/28 08:54:13;;;;;;;;;;;;;;;27.00;63.65;101289.44;4941244;28;19953;-86
2022/07/28 09:05:49;;;;;;;;;;;;;;;27.02;63.50;101299.25;4977578;28;19988;-90
2022/07/28 09:08:16;;;;;;;;;;;;;;;27.07;63.20;101301.03;4920018;29;19958;-90
2022/07/28 09:22:58;;;;;;;;;;;;;;;26.98;63.76;101294.81;4933877;28;19922;-90
2022/07/28 09:25:26;;;;;;;;;;;;;;;27.05;63.72;101289.41;4950163;29;19944;-91
2022/07/28 09:28:13;;;;;;;;;;;;;;;27.06;63.54;101299.25;4932011;29;19919;-88
2022/07/28 09:31:16;;;;;;;;;;;;;;;;;;;;;
2022/07/28 09:33:52;;;;;;;;;;;;;;;27.06;63.55;101294.78;4878356;29;19929;-88
2022/07/28 09:36:21;;;;;;;;;;;;;;;27.06;63.22;101302.81;4935661;29;19923;-86
2022/07/28 09:38:46;;;;;;;;;;;;;;;27.07;63.45;101301.03;4961401;28;19924;-86
2022/07/28 09:41:22;;;;;;;;;;;;;;;;;;;;;
2022/07/28 09:44:01;;;;;;;;;;;;;;;27.04;63.97;101299.25;4976834;28;20414;-88
2022/07/28 09:46:29;;;;;;;;;;;;;;;27.08;63.38;101302.81;4958828;28;19921;-85
2022/07/28 09:48:58;;;;;;;;;;;;;;;27.10;63.45;101301.91;4947610;28;19914;-85
2022/07/28 09:51:34;;;;;;;;;;;;;;;27.11;63.60;101306.34;4964385;28;19925;-89
2022/07/28 09:54:30;;;;;;;;;;;;;;;27.06;63.40;101302.81;4949561;28;19924;-86
2022/07/28 09:59:54;;;;;;;;;;;;;;;27.08;63.50;101301.03;4961590;28;19913;-87
2022/07/28 10:02:28;;;;;;;;;;;;;;;27.09;63.61;101288.50;4959986;28;19936;-87
2022/07/28 10:04:57;;;;;;;;;;;;;;;27.11;63.60;101292.06;4972334;28;19918;-88
2022/07/28 10:07:24;;;;;;;;;;;;;;;27.07;63.27;101291.19;4960135;28;19936;-87
2022/07/28 10:10:14;;;;;;;;;;;;;;;27.02;63.71;101298.38;4974052;28;20000;-87
2022/07/28 10:12:45;;;;;;;;;;;;;;;27.09;63.42;101293.84;4969695;28;20391;-87
2022/07/28 10:21:42;;;;;;;;;;;;;;;27.13;63.13;101285.78;4982970;28;19921;-89
2022/07/28 10:24:56;;;;;;;;;;;;;;;27.12;63.43;101302.78;4947905;28;19980;-87
2022/07/28 10:28:00;;;;;;;;;;;;;;;;;;;;;
2022/07/28 10:30:52;;;;;;;;;;;;;;;27.10;63.20;101301.91;4895020;29;20432;-87
2022/07/28 10:33:24;;;;;;;;;;;;;;;27.13;63.35;101301.88;4872869;29;19930;-89
2022/07/28 10:36:07;;;;;;;;;;;;;;;27.15;62.93;101299.19;4867983;29;19919;-89
2022/07/28 10:41:19;;;;;;;;;;;;;;;27.17;62.70;101309.00;4962997;28;19914;-88
2022/07/28 10:43:44;;;;;;;;;;;;;;;27.20;62.79;101302.75;4970865;28;19921;-88
2022/07/28 10:46:10;;;;;;;;;;;;;;;27.20;62.60;101303.63;4964364;28;20407;-88
2022/07/28 10:48:47;;;;;;;;;;;;;;;27.19;62.87;101303.63;4957172;28;19914;-88
2022/07/28 10:51:18;;;;;;;;;;;;;;;27.19;62.63;101306.31;4975321;28;19913;-88
2022/07/28 10:53:56;;;;;;;;;;;;;;;27.17;62.80;101306.31;4948845;28;19926;-88
2022/07/28 10:56:45;;;;;;;;;;;;;;;27.16;63.07;101304.56;4975347;28;19913;-88
2022/07/28 10:59:30;;;;;;;;;;;;;;;27.17;62.72;101302.75;4970001;28;19913;-88
2022/07/28 11:01:58;;;;;;;;;;;;;;;27.20;62.45;101298.28;4959697;28;20431;-87
2022/07/28 11:05:01;;;;;;;;;;;;;;;27.21;62.54;101297.34;4975536;28;20442;-89
2022/07/28 11:11:16;;;;;;;;;;;;;;;27.21;62.64;101308.09;4913225;29;19967;-87
2022/07/28 11:13:45;;;;;;;;;;;;;;;27.23;62.42;101312.59;4879620;29;19919;-90
2022/07/28 11:19:15;;;;;;;;;;;;;;;27.25;62.16;101303.63;4951807;28;19925;-89
2022/07/28 11:22:03;;;;;;;;;;;;;;;27.23;62.29;101313.47;4956062;28;19917;-90
2022/07/28 11:24:48;;;;;;;;;;;;;;;27.25;62.01;101310.78;4957635;28;20008;-89
2022/07/28 11:27:22;;;;;;;;;;;;;;;27.27;61.59;101317.94;4968181;28;19968;-88
2022/07/28 11:30:10;;;;;;;;;;;;;;;27.26;61.86;101310.75;4960990;28;19929;-89
2022/07/28 11:45:29;;;;;;;;;;;;;;;27.28;62.22;101297.34;4931092;29;20555;-89
2022/07/28 11:51:03;;;;;;;;;;;;;;;27.32;61.79;101296.44;4970156;28;19964;-88
2022/07/28 11:53:34;;;;;;;;;;;;;;;27.33;61.58;101291.06;4988648;28;20016;-88
2022/07/28 11:56:04;;;;;;;;;;;;;;;27.32;61.51;101291.06;4968260;28;20351;-90
2022/07/28 11:59:16;;;;;;;;;;;;;;;;;;;;;
2022/07/28 12:01:50;;;;;;;;;;;;;;;27.34;61.36;101305.38;4912206;29;20389;-88
2022/07/28 12:04:15;;;;;;;;;;;;;;;27.36;61.27;101298.19;4930369;28;19918;-89
2022/07/28 12:06:41;;;;;;;;;;;;;;;27.34;61.16;101302.69;4957544;28;19954;-89
2022/07/28 12:09:08;;;;;;;;;;;;;;;27.37;60.74;101300.00;4958049;28;19917;-87
2022/07/28 12:11:34;;;;;;;;;;;;;;;27.34;61.18;101302.69;4960090;28;20334;-90
2022/07/28 12:14:00;;;;;;;;;;;;;;;27.33;61.26;101299.13;4961896;28;20486;-90
2022/07/28 12:16:41;;;;;;;;;;;;;;;27.36;60.75;101301.75;4962316;28;19957;-89
2022/07/28 12:19:08;;;;;;;;;;;;;;;27.32;61.01;101296.44;4960544;28;19921;-89
2022/07/28 12:22:02;;;;;;;;;;;;;;;27.37;60.92;101295.50;4977404;28;19918;-90
2022/07/28 12:47:01;;;;;;;;;;;;;;;27.40;60.32;101299.97;5563869;23;19984;-90
2022/07/28 12:49:27;;;;;;;;;;;;;;;27.41;60.23;101293.69;4959311;28;19926;-87
2022/07/28 12:52:39;;;;;;;;;;;;;;;27.41;60.41;101302.63;4976457;28;19929;-90
2022/07/28 12:55:31;;;;;;;;;;;;;;;27.41;60.22;101299.03;4987674;28;20061;-90
2022/07/28 12:58:33;;;;;;;;;;;;;;;;;;;;;
2022/07/28 13:01:01;;;;;;;;;;;;;;;27.42;60.06;101299.03;4992534;28;19922;-90
2022/07/28 13:03:40;;;;;;;;;;;;;;;;;;;;;
2022/07/28 13:06:16;;;;;;;;;;;;;;;27.41;60.23;101296.34;4992254;28;19922;-89
2022/07/28 13:09:44;;;;;;;;;;;;;;;27.42;60.62;101299.03;4959708;28;20370;-88
2022/07/28 13:15:26;;;;;;;;;;;;;;;27.44;60.36;101292.78;4907853;29;20456;-91
2022/07/28 13:24:36;;;;;;;;;;;;;;;27.40;60.54;101287.44;4892649;29;19925;-90
2022/07/28 13:27:02;;;;;;;;;;;;;;;27.40;60.17;101278.50;4919586;28;19943;-89
2022/07/28 13:29:52;;;;;;;;;;;;;;;27.38;60.02;101286.53;4971329;28;19922;-90
2022/07/28 13:38:34;;;;;;;;;;;;;;;27.40;60.42;101286.53;4919594;29;20014;-89
2022/07/28 13:41:27;;;;;;;;;;;;;;;27.40;60.41;101286.53;4899498;29;19919;-89
2022/07/28 13:44:08;;;;;;;;;;;;;;;27.35;60.92;101285.69;4963172;28;19921;-88
2022/07/28 13:46:43;;;;;;;;;;;;;;;;;;;;;
2022/07/28 13:55:15;;;;;;;;;;;;;;;27.45;60.08;101282.03;4992641;28;19987;-89
2022/07/28 14:03:48;;;;;;;;;;;;;;;27.47;60.15;101290.06;4975208;28;20447;-90
2022/07/28 14:06:14;;;;;;;;;;;;;;;27.41;59.89;101282.94;4965310;28;19973;-88
2022/07/28 14:08:42;;;;;;;;;;;;;;;27.37;60.64;101287.47;4960054;28;19921;-88
2022/07/28 14:11:08;;;;;;;;;;;;;;;27.39;60.15;101284.78;4956022;28;19953;-88
2022/07/28 14:14:03;;;;;;;;;;;;;;;27.39;60.07;101282.97;4952782;28;19915;-88
2022/07/28 14:16:40;;;;;;;;;;;;;;;27.28;60.18;101265.16;4972676;28;19926;-89
2022/07/28 14:19:12;;;;;;;;;;;;;;;27.38;60.21;101281.19;4949447;28;19977;-90
2022/07/28 14:21:38;;;;;;;;;;;;;;;27.39;59.84;101277.63;4980023;28;19924;-89
2022/07/28 14:24:07;;;;;;;;;;;;;;;27.44;59.69;101280.25;4969716;28;20022;-90
2022/07/28 14:26:44;;;;;;;;;;;;;;;27.35;60.41;101272.28;4949030;28;19926;-89
2022/07/28 14:29:26;;;;;;;;;;;;;;;27.38;60.55;101267.78;4965684;28;19972;-89
2022/07/28 14:31:54;;;;;;;;;;;;;;;27.35;60.74;101272.28;4955243;28;19949;-90
2022/07/28 14:34:20;;;;;;;;;;;;;;;27.36;60.97;101277.63;4975073;28;20183;-89
2022/07/28 14:36:51;;;;;;;;;;;;;;;27.34;60.57;101279.44;4955130;28;20017;-89
2022/07/28 14:39:17;;;;;;;;;;;;;;;27.36;60.58;101274.06;4950581;28;19914;-89
2022/07/28 14:41:43;;;;;;;;;;;;;;;27.43;60.09;101273.09;4957571;28;19917;-89
2022/07/28 14:44:17;;;;;;;;;;;;;;;27.41;60.41;101264.16;4965410;28;19922;-89
2022/07/28 14:46:46;;;;;;;;;;;;;;;27.41;60.18;101265.09;4939640;28;20400;-88
2022/07/28 14:49:18;;;;;;;;;;;;;;;27.39;60.28;101266.00;4975061;28;19961;-89
2022/07/28 14:51:44;;;;;;;;;;;;;;;27.39;60.13;101257.97;4960134;28;19928;-88
2022/07/28 14:54:13;;;;;;;;;;;;;;;27.40;60.03;101262.41;4977842;28;20005;-89
2022/07/28 14:56:41;;;;;;;;;;;;;;;27.42;59.93;101261.47;4957493;28;19918;-89
2022/07/28 14:59:07;;;;;;;;;;;;;;;27.38;60.29;101265.09;4953187;28;20459;-90
2022/07/28 15:01:43;;;;;;;;;;;;;;;27.39;60.20;101261.53;4955168;28;19964;-91
2022/07/28 15:04:11;;;;;;;;;;;;;;;27.44;59.92;101265.97;4956171;28;19914;-89
2022/07/28 15:06:36;;;;;;;;;;;;;;;27.46;59.84;101264.16;4959227;28;19914;-89
2022/07/28 15:09:08;;;;;;;;;;;;;;;27.42;60.10;101271.34;4955354;28;19985;-89
2022/07/28 15:11:46;;;;;;;;;;;;;;;27.41;59.83;101275.81;4977264;28;19996;-90
2022/07/28 15:14:29;;;;;;;;;;;;;;;27.45;59.51;101275.78;4951214;28;19914;-89
2022/07/28 15:16:54;;;;;;;;;;;;;;;27.41;59.89;101281.19;4944285;28;19922;-90
2022/07/28 15:19:21;;;;;;;;;;;;;;;27.45;60.06;101275.78;4946719;28;20295;-88
2022/07/28 15:21:46;;;;;;;;;;;;;;;27.40;60.18;101274.00;4968606;28;20387;-89
2022/07/28 15:24:13;;;;;;;;;;;;;;;27.41;59.91;101277.59;4960050;28;19944;-88
2022/07/28 15:26:41;;;;;;;;;;;;;;;27.42;60.00;101285.63;4976019;28;19953;-89
2022/07/28 15:29:09;;;;;;;;;;;;;;;27.42;60.18;101290.09;4955418;28;20285;-88
2022/07/28 15:31:36;;;;;;;;;;;;;;;27.45;59.72;101289.19;4955894;28;19914;-90
2022/07/28 15:34:02;;;;;;;;;;;;;;;27.47;59.80;101288.25;4959639;28;20017;-89
2022/07/28 15:36:29;;;;;;;;;;;;;;;27.46;59.76;101289.19;4961177;28;20312;-87
2022/07/28 15:38:58;;;;;;;;;;;;;;;27.47;59.79;101293.63;4934678;28;19914;-89